createdAt,value
2022-11-03T00:00:56.183Z,11.40
2022-11-03T00:04:01.173Z,11.28
2022-11-03T00:07:03.097Z,11.18
2022-11-03T00:09:50.489Z,11.07
2022-11-03T00:12:43.496Z,10.95
2022-11-03T00:15:29.573Z,10.66
2022-11-03T00:18:22.328Z,10.85
2022-11-03T00:21:21.551Z,10.85
2022-11-03T00:24:26.862Z,10.77
2022-11-03T00:27:31.924Z,10.66
2022-11-03T00:30:37.287Z,10.80
2022-11-03T00:33:47.228Z,10.65
2022-11-03T00:36:58.082Z,10.69
2022-11-03T00:40:02.905Z,10.84
2022-11-03T00:43:08.933Z,10.68
2022-11-03T00:46:15.657Z,10.59
2022-11-03T00:49:23.524Z,10.66
2022-11-03T00:52:31.457Z,10.60
2022-11-03T00:55:37.598Z,10.37
2022-11-03T00:58:42.598Z,10.14
2022-11-03T01:01:53.661Z,10.12
2022-11-03T01:05:16.667Z,9.86
2022-11-03T01:08:26.633Z,10.11
2022-11-03T01:11:51.665Z,10.08
2022-11-03T01:15:01.230Z,10.01
2022-11-03T01:18:08.399Z,9.84
2022-11-03T01:21:14.599Z,9.85
2022-11-03T01:24:20.102Z,9.65
2022-11-03T01:27:30.603Z,9.66
2022-11-03T01:30:36.970Z,9.59
2022-11-03T01:33:43.332Z,9.43
2022-11-03T01:36:49.363Z,9.53
2022-11-03T01:39:48.538Z,9.60
2022-11-03T01:42:55.843Z,9.61
2022-11-03T01:46:01.447Z,9.67
2022-11-03T01:49:18.519Z,9.59
2022-11-03T01:52:56.747Z,9.60
2022-11-03T01:56:03.113Z,9.68
2022-11-03T01:59:09.922Z,9.75
2022-11-03T02:02:16.476Z,9.73
2022-11-03T02:05:23.327Z,9.51
2022-11-03T02:08:47.690Z,9.45
2022-11-03T02:12:10.709Z,9.51
2022-11-03T02:15:11.063Z,9.17
2022-11-03T02:18:17.982Z,9.12
2022-11-03T02:21:46.827Z,9.21
2022-11-03T02:25:09.567Z,9.23
2022-11-03T02:28:15.047Z,9.23
2022-11-03T02:31:39.531Z,9.16
2022-11-03T02:34:51.693Z,8.98
2022-11-03T02:37:55.948Z,8.79
2022-11-03T02:41:04.415Z,8.78
2022-11-03T02:44:10.305Z,8.73
2022-11-03T02:47:20.696Z,8.65
2022-11-03T02:50:28.378Z,8.60
2022-11-03T02:53:34.569Z,8.37
2022-11-03T02:56:41.096Z,8.59
2022-11-03T02:59:57.864Z,8.59
2022-11-03T03:03:11.500Z,8.52
2022-11-03T03:06:21.287Z,8.39
2022-11-03T03:09:33.419Z,8.36
2022-11-03T03:12:39.152Z,8.39
2022-11-03T03:16:21.657Z,8.48
2022-11-03T03:19:47.632Z,8.30
2022-11-03T03:22:57.162Z,8.22
2022-11-03T03:26:22.902Z,8.48
2022-11-03T03:29:36.389Z,8.34
2022-11-03T03:32:44.991Z,8.06
2022-11-03T03:35:51.314Z,8.03
2022-11-03T03:39:00.009Z,8.01
2022-11-03T03:42:06.268Z,8.14
2022-11-03T03:45:11.721Z,8.13
2022-11-03T03:48:10.172Z,8.08
2022-11-03T03:51:16.325Z,8.03
2022-11-03T03:54:21.465Z,8.10
2022-11-03T03:57:30.370Z,8.17
2022-11-03T04:00:36.470Z,8.32
2022-11-03T04:03:42.559Z,8.07
2022-11-03T04:06:49.415Z,8.24
2022-11-03T04:09:55.678Z,8.32
2022-11-03T04:13:18.947Z,8.39
2022-11-03T04:16:42.247Z,8.19
2022-11-03T04:20:05.993Z,8.50
2022-11-03T04:23:11.728Z,8.42
2022-11-03T04:26:17.080Z,8.41
2022-11-03T04:29:24.842Z,8.65
2022-11-03T04:32:31.371Z,8.75
2022-11-03T04:35:42.753Z,8.59
2022-11-03T04:38:47.877Z,8.78
2022-11-03T04:41:53.128Z,8.98
2022-11-03T04:44:59.405Z,8.94
2022-11-03T04:48:05.411Z,8.83
2022-11-03T04:51:13.922Z,8.96
2022-11-03T04:54:23.121Z,9.06
2022-11-03T04:57:30.261Z,9.13
2022-11-03T05:00:35.139Z,9.13
2022-11-03T05:03:48.862Z,8.73
2022-11-03T05:06:55.803Z,8.85
2022-11-03T05:10:01.256Z,8.93
2022-11-03T05:13:08.874Z,9.01
2022-11-03T05:16:19.323Z,9.13
2022-11-03T05:19:30.015Z,9.10
2022-11-03T05:22:36.571Z,9.10
2022-11-03T05:25:55.011Z,9.16
2022-11-03T05:29:11.380Z,9.12
2022-11-03T05:32:16.960Z,9.52
2022-11-03T05:35:35.405Z,9.47
2022-11-03T05:38:41.476Z,9.54
2022-11-03T05:41:47.978Z,9.56
2022-11-03T05:44:55.241Z,9.55
2022-11-03T05:48:01.820Z,9.51
2022-11-03T05:51:06.816Z,9.62
2022-11-03T05:54:18.542Z,9.71
2022-11-03T05:57:28.580Z,9.91
2022-11-03T06:00:48.413Z,10.09
2022-11-03T06:03:50.464Z,10.43
2022-11-03T06:06:56.513Z,10.49
2022-11-03T06:10:03.098Z,10.44
2022-11-03T06:13:12.231Z,10.78
2022-11-03T06:16:48.554Z,10.66
2022-11-03T06:19:57.934Z,10.71
2022-11-03T06:23:04.430Z,10.65
2022-11-03T06:26:10.257Z,10.76
2022-11-03T06:29:15.306Z,11.36
2022-11-03T06:32:24.697Z,11.53
2022-11-03T06:35:30.800Z,11.31
2022-11-03T06:38:41.171Z,11.00
2022-11-03T06:41:47.825Z,10.88
2022-11-03T06:44:54.126Z,11.30
2022-11-03T06:48:01.422Z,11.15
2022-11-03T06:51:06.664Z,11.24
2022-11-03T06:54:16.221Z,11.45
2022-11-03T06:57:27.598Z,11.47
2022-11-03T07:00:45.907Z,11.46
2022-11-03T07:03:49.635Z,11.71
2022-11-03T07:06:58.504Z,11.86
2022-11-03T07:10:04.761Z,12.10
2022-11-03T07:13:10.261Z,11.94
2022-11-03T07:16:18.915Z,12.08
2022-11-03T07:19:53.094Z,12.16
2022-11-03T07:22:59.197Z,12.15
2022-11-03T07:26:15.470Z,12.35
2022-11-03T07:29:24.013Z,12.50
2022-11-03T07:32:35.024Z,12.83
2022-11-03T07:36:14.404Z,13.06
2022-11-03T07:39:03.707Z,13.04
2022-11-03T07:42:09.589Z,13.06
2022-11-03T07:45:14.520Z,13.08
2022-11-03T07:48:40.177Z,13.13
2022-11-03T07:51:41.985Z,13.01
2022-11-03T07:54:48.549Z,13.18
2022-11-03T07:57:54.958Z,13.50
2022-11-03T08:01:02.527Z,13.52
2022-11-03T08:04:08.902Z,13.54
2022-11-03T08:07:14.844Z,13.62
2022-11-03T08:10:21.026Z,13.73
2022-11-03T08:13:28.122Z,13.69
2022-11-03T08:16:34.185Z,13.64
2022-11-03T08:19:40.037Z,13.61
2022-11-03T08:22:50.021Z,13.57
2022-11-03T08:25:53.237Z,13.44
2022-11-03T08:28:58.778Z,13.73
2022-11-03T08:32:05.778Z,13.47
2022-11-03T08:35:11.271Z,13.66
2022-11-03T08:38:16.568Z,13.61
2022-11-03T08:41:21.356Z,13.88
2022-11-03T08:44:27.744Z,13.76
2022-11-03T08:47:34.428Z,14.15
2022-11-03T08:50:42.741Z,14.41
2022-11-03T08:53:48.933Z,14.66
2022-11-03T08:56:56.825Z,14.51
2022-11-03T09:00:02.982Z,14.41
2022-11-03T09:03:08.528Z,14.59
2022-11-03T09:06:14.258Z,14.74
2022-11-03T09:12:29.292Z,14.96
2022-11-03T09:15:36.248Z,14.96
2022-11-03T09:18:42.699Z,15.17
2022-11-03T09:21:50.787Z,15.27
2022-11-03T09:24:57.075Z,14.83
2022-11-03T09:28:03.718Z,15.37
2022-11-03T09:31:10.680Z,15.53
2022-11-03T09:34:16.648Z,15.62
2022-11-03T09:37:22.977Z,15.60
2022-11-03T09:40:32.115Z,15.62
2022-11-03T09:43:38.053Z,15.44
2022-11-03T09:46:37.562Z,15.67
2022-11-03T09:49:24.178Z,15.71
2022-11-03T09:52:18.651Z,15.38
2022-11-03T09:55:04.814Z,15.35
2022-11-03T09:58:01.566Z,15.23
2022-11-03T10:00:51.448Z,14.66
2022-11-03T10:03:51.212Z,14.68
2022-11-03T10:06:57.589Z,14.83
2022-11-03T10:10:06.246Z,15.08
2022-11-03T10:13:13.634Z,15.42
2022-11-03T10:16:25.173Z,15.47
2022-11-03T10:19:30.864Z,15.39
2022-11-03T10:22:30.651Z,15.49
2022-11-03T10:25:47.821Z,15.78
2022-11-03T10:28:54.183Z,15.53
2022-11-03T10:32:01.439Z,15.68
2022-11-03T10:35:09.264Z,15.37
2022-11-03T10:38:42.974Z,14.81
2022-11-03T10:41:49.678Z,15.45
2022-11-03T10:44:55.359Z,15.12
2022-11-03T10:48:16.645Z,15.04
2022-11-03T10:51:27.750Z,14.94
2022-11-03T10:54:32.307Z,14.95
2022-11-03T10:57:38.611Z,15.17
2022-11-03T11:00:45.532Z,15.33
2022-11-03T11:03:57.330Z,15.21
2022-11-03T11:07:03.720Z,15.26
2022-11-03T11:10:08.464Z,15.17
2022-11-03T11:13:34.172Z,15.00
2022-11-03T11:17:08.510Z,15.33
2022-11-03T11:20:45.678Z,15.59
2022-11-03T11:23:56.545Z,15.63
2022-11-03T11:27:04.302Z,15.51
2022-11-03T11:30:11.404Z,15.74
2022-11-03T11:33:32.086Z,15.54
2022-11-03T11:36:41.597Z,16.18
2022-11-03T11:39:52.311Z,16.31
2022-11-03T11:43:23.663Z,16.20
2022-11-03T11:46:55.070Z,16.28
2022-11-03T11:50:00.478Z,16.35
2022-11-03T11:53:26.239Z,16.42
2022-11-03T11:56:29.941Z,16.20
2022-11-03T11:59:43.642Z,16.13
2022-11-03T12:02:49.416Z,16.26
2022-11-03T12:05:55.326Z,16.40
2022-11-03T12:09:01.723Z,16.27
2022-11-03T12:12:09.148Z,16.41
2022-11-03T12:15:02.057Z,16.32
2022-11-03T12:18:09.636Z,16.23
2022-11-03T12:21:21.416Z,16.28
2022-11-03T12:24:43.612Z,16.36
2022-11-03T12:27:53.739Z,16.59
2022-11-03T12:31:01.202Z,16.66
2022-11-03T12:34:07.072Z,16.67
2022-11-03T12:37:13.660Z,16.61
2022-11-03T12:40:21.341Z,16.26
2022-11-03T12:43:27.757Z,16.42
2022-11-03T12:46:34.844Z,16.36
2022-11-03T12:49:40.948Z,16.30
2022-11-03T12:52:47.647Z,15.65
2022-11-03T12:55:53.301Z,16.39
2022-11-03T12:58:58.691Z,16.31
2022-11-03T13:02:04.468Z,15.46
2022-11-03T13:05:10.222Z,15.32
2022-11-03T13:08:15.734Z,15.44
2022-11-03T13:11:39.383Z,15.49
2022-11-03T13:14:46.245Z,15.10
2022-11-03T13:21:01.486Z,15.16
2022-11-03T13:24:07.445Z,14.69
2022-11-03T13:27:13.854Z,14.86
2022-11-03T13:30:21.554Z,15.21
2022-11-03T13:33:26.974Z,14.95
2022-11-03T13:36:32.614Z,14.74
2022-11-03T13:39:39.013Z,14.81
2022-11-03T13:42:44.725Z,14.79
2022-11-03T16:33:45.247Z,9.69
2022-11-03T16:36:52.349Z,9.66
2022-11-03T16:39:57.556Z,9.76
2022-11-03T16:43:03.148Z,9.61
2022-11-03T16:46:09.030Z,9.48
2022-11-03T16:49:14.316Z,9.51
2022-11-03T16:52:20.798Z,9.60
2022-11-03T16:55:27.444Z,9.66
2022-11-03T16:58:33.114Z,9.65
2022-11-03T17:01:38.923Z,9.78
2022-11-03T17:04:44.553Z,9.81
2022-11-03T17:07:54.027Z,9.75
2022-11-03T17:10:58.953Z,9.81
2022-11-03T17:14:04.763Z,9.82
2022-11-03T17:17:11.460Z,9.61
2022-11-03T17:20:18.174Z,9.72
2022-11-03T17:23:24.236Z,9.64
2022-11-03T17:26:30.025Z,9.72
2022-11-03T17:29:44.280Z,9.81
2022-11-03T17:32:54.767Z,9.70
2022-11-03T17:36:01.793Z,9.58
2022-11-03T17:39:09.035Z,9.55
2022-11-03T17:42:35.089Z,9.48
2022-11-03T17:45:41.305Z,9.59
2022-11-03T17:48:47.306Z,9.36
2022-11-03T17:51:56.203Z,9.21
2022-11-03T17:55:02.913Z,9.37
2022-11-03T17:58:08.682Z,9.35
2022-11-03T18:01:19.180Z,9.38
2022-11-03T18:04:29.565Z,9.33
2022-11-03T18:07:43.936Z,9.28
2022-11-03T18:10:50.151Z,9.17
2022-11-03T18:13:55.865Z,9.22
2022-11-03T18:17:02.182Z,9.36
2022-11-03T18:20:07.572Z,9.06
2022-11-03T18:23:35.667Z,9.13
2022-11-03T18:26:41.628Z,9.04
2022-11-03T18:29:48.003Z,8.92
2022-11-03T18:32:56.291Z,9.00
2022-11-03T18:36:02.229Z,8.84
2022-11-03T18:39:10.953Z,8.74
2022-11-03T18:42:19.373Z,8.79
2022-11-03T18:45:30.199Z,8.84
2022-11-03T18:48:35.742Z,8.65
2022-11-03T18:51:42.488Z,8.74
2022-11-03T18:54:49.816Z,8.67
2022-11-03T18:57:56.874Z,8.59
2022-11-03T19:01:02.970Z,8.65
2022-11-03T19:04:08.756Z,8.78
2022-11-03T19:07:15.416Z,8.79
2022-11-03T19:10:22.582Z,8.59
2022-11-03T19:13:31.637Z,8.64
2022-11-03T19:16:45.837Z,8.85
2022-11-03T19:19:46.025Z,8.90
2022-11-03T19:22:45.857Z,9.02
2022-11-03T19:25:39.018Z,8.96
2022-11-03T19:28:44.623Z,8.89
2022-11-03T19:31:53.022Z,8.80
2022-11-03T19:35:00.484Z,8.97
2022-11-03T19:38:16.855Z,8.94
2022-11-03T19:41:48.171Z,8.95
2022-11-03T19:44:53.565Z,8.74
2022-11-03T19:51:06.818Z,9.07
2022-11-03T19:54:12.632Z,9.05
2022-11-03T19:57:24.132Z,9.05
2022-11-03T20:00:34.209Z,9.11
2022-11-03T20:03:40.509Z,9.14
2022-11-03T20:06:48.432Z,9.06
2022-11-03T20:09:54.576Z,8.82
2022-11-03T20:13:01.146Z,8.88
2022-11-03T20:16:07.841Z,8.78
2022-11-03T20:19:14.389Z,8.83
2022-11-03T20:22:22.234Z,8.90
2022-11-03T20:25:43.487Z,8.70
2022-11-03T20:28:51.373Z,8.75
2022-11-03T20:31:59.432Z,8.75
2022-11-03T20:35:05.443Z,8.72
2022-11-03T20:38:13.952Z,8.74
2022-11-03T20:41:21.191Z,8.35
2022-11-03T20:44:28.527Z,8.20
2022-11-03T20:47:34.213Z,8.20
2022-11-03T20:50:40.060Z,8.19
2022-11-03T20:53:46.555Z,8.25
2022-11-03T20:56:52.271Z,8.26
2022-11-03T20:59:58.231Z,8.28
2022-11-03T21:03:04.358Z,8.29
2022-11-03T21:06:09.734Z,8.01
2022-11-03T21:09:16.875Z,8.15
2022-11-03T21:12:26.600Z,8.21
2022-11-03T21:16:18.597Z,8.12
2022-11-03T21:19:21.462Z,8.12
2022-11-03T21:25:40.709Z,8.18
2022-11-03T21:28:46.285Z,8.15
2022-11-03T21:31:52.941Z,7.98
2022-11-03T21:35:01.030Z,8.01
2022-11-03T21:38:05.948Z,8.06
2022-11-03T21:41:30.381Z,8.21
2022-11-03T21:44:37.889Z,8.14
2022-11-03T21:47:44.959Z,8.09
2022-11-03T21:50:51.919Z,8.15
2022-11-03T21:53:58.955Z,8.18
2022-11-03T21:57:05.815Z,8.21
2022-11-03T22:00:11.650Z,8.16
2022-11-03T22:03:18.429Z,8.22
2022-11-03T22:06:24.507Z,8.26
2022-11-03T22:09:32.353Z,8.25
2022-11-03T22:12:38.855Z,8.23
2022-11-03T22:16:03.504Z,8.25
2022-11-03T22:19:27.075Z,8.34
2022-11-03T22:22:50.400Z,8.41
2022-11-03T22:26:14.159Z,8.50
2022-11-03T22:29:37.864Z,8.50
2022-11-03T22:32:44.308Z,8.50
2022-11-03T22:36:08.865Z,8.39
2022-11-03T22:39:32.302Z,8.34
2022-11-03T22:42:55.414Z,8.36
2022-11-03T22:46:02.177Z,8.52
2022-11-03T22:49:08.032Z,8.64
2022-11-03T22:52:15.066Z,8.73
2022-11-03T22:55:21.116Z,8.75
2022-11-03T22:58:30.562Z,8.71
2022-11-03T23:01:40.258Z,8.67
2022-11-03T23:04:45.913Z,8.61
2022-11-03T23:07:51.026Z,8.54
2022-11-03T23:10:57.103Z,8.73
2022-11-03T23:14:07.102Z,8.83
2022-11-03T23:17:13.532Z,8.87
2022-11-03T23:20:36.919Z,8.78
2022-11-03T23:24:00.543Z,8.91
2022-11-03T23:27:07.295Z,9.07
2022-11-03T23:30:13.308Z,9.05
2022-11-03T23:33:20.035Z,8.98
2022-11-03T23:36:28.249Z,9.05
2022-11-03T23:39:34.895Z,8.88
2022-11-03T23:42:40.965Z,8.82
2022-11-03T23:46:04.094Z,8.76
2022-11-03T23:49:10.307Z,8.85
2022-11-03T23:52:15.282Z,8.79
2022-11-03T23:55:22.624Z,8.92
2022-11-03T23:58:29.120Z,8.93
